Homer, Alaska
Current Conditions -  °F | °C
As of 11:53 PM on Saturday 22 Nov 2014 (Local Time) from PAHO Reporting Station
Unknown Precip Unknown Precip  
Wind Chill: 31°   Ceiling: 4200
Heat Index: 36°   Visibility: 9mi
Dew Point: 32°   Wind: 6mph
Humidity: 86%   Direction: 30°NNE
Pressure: 29.24"   Gusts: NA
Location:  59.64°N, 151.55°W
Report Text: PAHO 230853Z AUTO 03005KT 9SM UP OVC042 02/00 A2924 RMK AO2 UPB33 SLP903 P0000 60000 T00220000 400721006 53022 TSNO $
Loading
Personal Weather Stations






























Interactive Weather Map New forecast layout! Learn more

10-Day Weather Forecast

Advertisements
Track Severe Weather on mobile